createdAt,value
2023-11-03T00:01:20.299Z,2.17
2023-11-03T00:04:22.501Z,3.08
2023-11-03T00:07:24.639Z,1.48
2023-11-03T00:10:26.430Z,5.20
2023-11-03T00:13:28.470Z,5.60
2023-11-03T00:16:30.547Z,3.55
2023-11-03T00:19:33.014Z,1.27
2023-11-03T00:22:35.283Z,2.40
2023-11-03T00:25:37.312Z,3.20
2023-11-03T00:28:42.191Z,3.90
2023-11-03T00:31:47.371Z,4.80
2023-11-03T00:34:49.587Z,3.10
2023-11-03T00:37:52.834Z,3.63
2023-11-03T00:40:55.950Z,4.10
2023-11-03T00:43:58.892Z,2.92
2023-11-03T00:47:00.856Z,3.22
2023-11-03T00:50:03.123Z,3.72
2023-11-03T00:53:05.032Z,2.38
2023-11-03T00:56:07.009Z,2.03
2023-11-03T00:59:09.104Z,2.85
2023-11-03T01:02:12.675Z,5.50
2023-11-03T01:05:16.223Z,3.15
2023-11-03T01:08:19.098Z,3.88
2023-11-03T01:11:24.758Z,5.75
2023-11-03T01:14:27.077Z,2.15
2023-11-03T01:17:30.001Z,1.02
2023-11-03T01:20:32.507Z,1.90
2023-11-03T01:23:34.302Z,4.15
2023-11-03T01:26:36.170Z,2.20
2023-11-03T01:29:38.655Z,1.50
2023-11-03T01:32:40.684Z,2.07
2023-11-03T01:35:42.927Z,2.65
2023-11-03T01:38:45.974Z,3.25
2023-11-03T01:41:48.686Z,2.25
2023-11-03T01:44:50.599Z,1.42
2023-11-03T01:47:52.376Z,1.45
2023-11-03T01:50:56.036Z,1.55
2023-11-03T01:53:58.361Z,1.90
2023-11-03T01:57:01.175Z,2.38
2023-11-03T02:00:05.179Z,7.15
2023-11-03T02:03:07.739Z,4.15
2023-11-03T02:06:09.641Z,1.38
2023-11-03T02:09:11.416Z,3.55
2023-11-03T02:12:13.706Z,2.30
2023-11-03T02:15:15.603Z,3.75
2023-11-03T02:18:18.926Z,2.20
2023-11-03T02:21:22.105Z,2.38
2023-11-03T02:24:23.935Z,5.38
2023-11-03T02:27:26.994Z,7.18
2023-11-03T02:30:28.994Z,3.95
2023-11-03T02:33:31.422Z,2.60
2023-11-03T02:36:33.340Z,4.47
2023-11-03T02:39:36.648Z,2.83
2023-11-03T02:45:40.353Z,5.30
2023-11-03T02:48:42.547Z,4.10
2023-11-03T02:51:44.548Z,5.10
2023-11-03T02:54:46.446Z,3.80
2023-11-03T02:57:48.399Z,5.72
2023-11-03T03:00:50.195Z,3.78
2023-11-03T03:03:53.016Z,2.97
2023-11-03T03:06:55.101Z,5.70
2023-11-03T03:09:57.118Z,3.17
2023-11-03T03:12:58.982Z,6.65
2023-11-03T03:16:01.051Z,8.75
2023-11-03T03:19:03.221Z,4.95
2023-11-03T03:22:05.175Z,5.05
2023-11-03T03:25:07.653Z,7.78
2023-11-03T03:28:09.509Z,7.27
2023-11-03T03:31:12.121Z,5.80
2023-11-03T03:34:14.110Z,7.72
2023-11-03T03:37:16.531Z,4.93
2023-11-03T03:40:18.956Z,8.85
2023-11-03T03:43:21.027Z,8.35
2023-11-03T03:46:22.804Z,5.15
2023-11-03T03:49:24.535Z,9.13
2023-11-03T03:52:26.296Z,10.40
2023-11-03T03:55:28.121Z,10.88
2023-11-03T03:58:32.504Z,9.00
2023-11-03T04:01:37.389Z,6.60
2023-11-03T04:04:44.367Z,8.43
2023-11-03T04:07:46.773Z,6.80
2023-11-03T04:10:48.581Z,9.73
2023-11-03T04:13:50.528Z,3.65
2023-11-03T04:16:53.981Z,8.43
2023-11-03T04:19:55.717Z,9.20
2023-11-03T04:22:57.958Z,10.13
2023-11-03T04:25:59.862Z,5.43
2023-11-03T04:29:01.675Z,7.05
2023-11-03T04:32:03.798Z,4.35
2023-11-03T04:35:09.272Z,5.10
2023-11-03T04:38:11.814Z,5.70
2023-11-03T04:41:13.749Z,5.55
2023-11-03T04:44:15.502Z,6.65
2023-11-03T04:47:17.540Z,6.65
2023-11-03T04:50:19.437Z,6.32
2023-11-03T04:53:21.289Z,7.90
2023-11-03T04:56:23.194Z,4.53
2023-11-03T04:59:25.019Z,6.25
2023-11-03T05:02:29.980Z,7.80
2023-11-03T05:05:33.799Z,3.65
2023-11-03T05:08:36.196Z,6.20
2023-11-03T05:11:38.101Z,6.68
2023-11-03T05:14:40.024Z,4.50
2023-11-03T05:17:41.934Z,6.45
2023-11-03T05:20:44.024Z,5.25
2023-11-03T05:23:46.063Z,5.97
2023-11-03T05:26:48.092Z,3.78
2023-11-03T05:29:49.858Z,4.88
2023-11-03T05:32:51.954Z,3.33
2023-11-03T05:35:54.516Z,6.20
2023-11-03T05:38:56.284Z,3.73
2023-11-03T05:41:58.636Z,8.77
2023-11-03T05:45:00.456Z,4.72
2023-11-03T05:48:02.546Z,6.15
2023-11-03T05:51:05.398Z,5.18
2023-11-03T05:54:07.335Z,2.92
2023-11-03T05:57:09.181Z,4.15
2023-11-03T06:00:12.702Z,3.58
2023-11-03T06:03:15.879Z,5.97
2023-11-03T06:06:19.377Z,5.63
2023-11-03T06:09:23.809Z,5.55
2023-11-03T06:12:25.743Z,5.25
2023-11-03T06:15:27.574Z,6.65
2023-11-03T06:18:29.369Z,3.83
2023-11-03T06:21:31.180Z,5.53
2023-11-03T06:24:33.235Z,8.65
2023-11-03T06:27:35.217Z,7.22
2023-11-03T06:30:37.163Z,3.70
2023-11-03T06:33:38.997Z,3.92
2023-11-03T06:36:47.472Z,5.50
2023-11-03T06:39:54.526Z,6.43
2023-11-03T06:42:56.368Z,6.47
2023-11-03T06:45:58.160Z,6.80
2023-11-03T06:49:00.215Z,5.05
2023-11-03T06:52:02.779Z,6.35
2023-11-03T06:55:04.836Z,6.37
2023-11-03T06:58:06.819Z,4.53
2023-11-03T07:01:08.880Z,8.10
2023-11-03T07:04:10.929Z,8.60
2023-11-03T07:07:12.946Z,6.57
2023-11-03T07:10:15.223Z,5.50
2023-11-03T07:13:17.094Z,6.28
2023-11-03T07:16:20.333Z,8.43
2023-11-03T07:19:23.903Z,8.77
2023-11-03T07:22:27.136Z,4.55
2023-11-03T07:25:29.049Z,7.53
2023-11-03T07:28:33.517Z,4.55
2023-11-03T07:31:35.851Z,8.35
2023-11-03T07:34:38.059Z,4.97
2023-11-03T07:37:44.399Z,8.48
2023-11-03T07:40:48.315Z,5.18
2023-11-03T07:43:50.041Z,3.88
2023-11-03T07:46:52.539Z,10.63
2023-11-03T07:49:54.441Z,11.40
2023-11-03T07:52:56.278Z,6.43
2023-11-03T07:55:58.106Z,10.00
2023-11-03T07:59:00.098Z,8.27
2023-11-03T08:02:02.082Z,5.50
2023-11-03T08:05:11.551Z,7.68
2023-11-03T08:08:17.910Z,5.47
2023-11-03T08:11:21.342Z,6.18
2023-11-03T08:14:24.360Z,11.98
2023-11-03T08:17:27.073Z,14.63
2023-11-03T08:20:29.097Z,11.48
2023-11-03T08:23:33.167Z,6.95
2023-11-03T08:26:34.965Z,7.65
2023-11-03T08:29:37.990Z,6.70
2023-11-03T08:32:40.131Z,7.68
2023-11-03T08:35:41.906Z,7.78
2023-11-03T08:38:43.994Z,7.35
2023-11-03T08:41:46.049Z,5.65
2023-11-03T08:44:48.065Z,9.63
2023-11-03T08:47:51.922Z,6.72
2023-11-03T08:50:56.158Z,5.75
2023-11-03T08:53:58.024Z,6.22
2023-11-03T08:57:03.770Z,12.40
2023-11-03T09:00:12.981Z,6.15
2023-11-03T09:03:15.153Z,8.60
2023-11-03T09:06:19.044Z,12.48
2023-11-03T09:09:22.660Z,10.60
2023-11-03T09:12:24.609Z,6.97
2023-11-03T09:15:28.626Z,8.40
2023-11-03T09:18:47.707Z,4.82
2023-11-03T09:21:50.261Z,3.90
2023-11-03T09:24:55.930Z,12.33
2023-11-03T09:28:11.155Z,6.72
2023-11-03T09:31:13.214Z,10.77
2023-11-03T09:34:15.890Z,6.88
2023-11-03T09:37:17.928Z,10.27
2023-11-03T09:40:21.872Z,13.20
2023-11-03T09:43:24.296Z,8.85
2023-11-03T09:46:26.604Z,11.23
2023-11-03T09:49:38.418Z,8.95
2023-11-03T09:52:57.860Z,8.73
2023-11-03T09:56:03.449Z,7.20
2023-11-03T09:59:08.504Z,9.27
2023-11-03T10:02:16.924Z,13.18
2023-11-03T10:05:19.677Z,11.88
2023-11-03T10:08:22.151Z,5.80
2023-11-03T10:11:24.351Z,10.30
2023-11-03T10:14:41.439Z,13.35
2023-11-03T10:17:49.269Z,9.18
2023-11-03T10:21:06.901Z,10.30
2023-11-03T10:24:08.920Z,6.85
2023-11-03T10:27:13.457Z,8.43
2023-11-03T10:30:19.437Z,14.48
2023-11-03T10:33:24.873Z,11.45
2023-11-03T10:36:27.605Z,8.18
2023-11-03T10:39:31.927Z,9.18
2023-11-03T10:42:39.715Z,8.93
2023-11-03T10:45:48.946Z,9.65
2023-11-03T10:49:04.652Z,9.00
2023-11-03T10:52:08.775Z,6.47
2023-11-03T10:55:20.424Z,6.35
2023-11-03T10:58:23.032Z,11.30
2023-11-03T11:01:33.525Z,11.70
2023-11-03T11:04:53.182Z,9.45
2023-11-03T11:08:02.871Z,10.13
2023-11-03T11:11:04.984Z,11.30
2023-11-03T11:14:26.343Z,8.90
2023-11-03T11:17:30.382Z,5.70
2023-11-03T11:20:38.516Z,6.15
2023-11-03T11:23:44.933Z,12.50
2023-11-03T11:26:48.142Z,8.15
2023-11-03T11:29:53.798Z,6.43
2023-11-03T11:32:57.118Z,6.47
2023-11-03T11:36:19.165Z,6.80
2023-11-03T11:39:24.000Z,5.63
2023-11-03T11:42:32.016Z,13.93
2023-11-03T11:45:34.683Z,8.07
2023-11-03T11:48:37.828Z,10.45
2023-11-03T11:51:40.941Z,5.55
2023-11-03T11:54:42.742Z,13.50
2023-11-03T11:57:47.731Z,11.15
2023-11-03T12:00:49.522Z,10.55
2023-11-03T12:03:53.466Z,7.93
2023-11-03T12:06:56.635Z,12.35
2023-11-03T12:09:58.807Z,11.95
2023-11-03T12:13:01.389Z,8.30
2023-11-03T12:16:05.591Z,9.37
2023-11-03T12:19:07.973Z,11.00
2023-11-03T12:22:20.836Z,10.80
2023-11-03T12:25:23.035Z,14.00
2023-11-03T12:28:25.838Z,11.20
2023-11-03T12:31:28.637Z,4.43
2023-11-03T12:34:31.364Z,10.27
2023-11-03T12:37:33.972Z,9.95
2023-11-03T12:40:36.028Z,10.83
2023-11-03T12:43:37.937Z,6.30
2023-11-03T12:46:49.356Z,11.27
2023-11-03T12:49:51.213Z,8.30
2023-11-03T12:53:06.658Z,10.45
2023-11-03T12:56:08.784Z,12.32
2023-11-03T12:59:10.712Z,9.40
2023-11-03T13:02:12.628Z,6.78
2023-11-03T13:05:15.634Z,9.60
2023-11-03T13:08:20.643Z,11.02
2023-11-03T13:11:23.553Z,5.57
2023-11-03T13:14:25.722Z,11.32
2023-11-03T13:17:27.901Z,13.43
2023-11-03T13:20:30.088Z,7.68
2023-11-03T13:23:31.817Z,9.23
2023-11-03T13:26:33.613Z,11.82
2023-11-03T13:29:35.435Z,7.20
2023-11-03T13:32:38.245Z,12.00
2023-11-03T13:35:40.573Z,8.00
2023-11-03T13:38:42.480Z,8.05
2023-11-03T13:41:45.461Z,8.63
2023-11-03T13:44:50.566Z,7.45
2023-11-03T13:47:52.469Z,9.10
2023-11-03T13:50:54.476Z,12.20
2023-11-03T13:53:57.529Z,10.70
2023-11-03T13:56:59.275Z,5.43
2023-11-03T14:00:01.281Z,10.07
2023-11-03T14:03:05.766Z,6.88
2023-11-03T14:06:09.804Z,9.30
2023-11-03T14:09:12.860Z,9.15
2023-11-03T14:12:14.777Z,12.60
2023-11-03T14:15:17.973Z,12.07
2023-11-03T14:18:20.672Z,7.47
2023-11-03T14:21:27.868Z,7.85
2023-11-03T14:24:29.788Z,8.00
2023-11-03T14:27:32.970Z,10.10
2023-11-03T14:30:34.965Z,9.20
2023-11-03T14:33:37.802Z,10.38
2023-11-03T14:36:44.533Z,15.98
2023-11-03T14:39:48.089Z,7.15
2023-11-03T14:42:50.184Z,6.47
2023-11-03T14:45:52.193Z,6.00
2023-11-03T14:48:54.175Z,10.00
2023-11-03T14:51:57.172Z,9.50
2023-11-03T14:54:59.062Z,10.25
2023-11-03T14:58:01.089Z,11.38
2023-11-03T15:01:08.617Z,6.82
2023-11-03T15:04:10.685Z,4.75
2023-11-03T15:07:12.699Z,6.97
2023-11-03T15:10:15.277Z,7.95
2023-11-03T15:13:18.693Z,13.85
2023-11-03T15:16:20.669Z,8.02
2023-11-03T15:19:22.536Z,5.38
2023-11-03T15:22:24.494Z,8.32
2023-11-03T15:25:26.549Z,6.78
2023-11-03T15:28:28.478Z,11.40
2023-11-03T15:31:31.992Z,10.63
2023-11-03T15:34:34.061Z,10.60
2023-11-03T15:37:39.846Z,10.18
2023-11-03T15:40:42.439Z,10.18
2023-11-03T15:43:44.896Z,12.43
2023-11-03T15:46:46.905Z,6.18
2023-11-03T15:49:50.634Z,9.25
2023-11-03T15:52:53.072Z,13.32
2023-11-03T15:55:56.761Z,9.35
2023-11-03T15:58:58.583Z,10.60
2023-11-03T16:02:00.323Z,5.78
2023-11-03T16:05:03.856Z,4.43
2023-11-03T16:08:10.996Z,9.15
2023-11-03T16:11:13.317Z,11.38
2023-11-03T16:14:15.783Z,6.47
2023-11-03T16:17:19.305Z,9.10
2023-11-03T16:23:22.982Z,8.20
2023-11-03T16:26:24.717Z,10.15
2023-11-03T16:29:26.824Z,6.32
2023-11-03T16:32:28.700Z,8.93
2023-11-03T16:35:32.581Z,9.98
2023-11-03T16:38:34.415Z,6.40
2023-11-03T16:41:36.352Z,8.23
2023-11-03T16:44:38.146Z,8.82
2023-11-03T16:47:42.068Z,7.63
2023-11-03T16:50:43.945Z,6.68
2023-11-03T16:53:46.026Z,8.25
2023-11-03T16:56:51.172Z,8.10
2023-11-03T16:59:54.312Z,15.27
2023-11-03T17:02:56.246Z,7.15
2023-11-03T17:05:58.708Z,8.02
2023-11-03T17:09:00.811Z,11.77
2023-11-03T17:12:02.585Z,9.07
2023-11-03T17:15:06.582Z,10.07
2023-11-03T17:18:15.277Z,8.70
2023-11-03T17:21:17.246Z,6.47
2023-11-03T17:24:22.136Z,7.35
2023-11-03T17:27:23.956Z,11.77
2023-11-03T17:30:26.021Z,6.55
2023-11-03T17:33:28.715Z,8.32
2023-11-03T17:36:31.117Z,5.03
2023-11-03T17:39:33.243Z,6.40
2023-11-03T17:42:35.081Z,6.35
2023-11-03T17:45:36.935Z,5.90
2023-11-03T17:48:38.806Z,5.90
2023-11-03T17:51:43.355Z,7.53
2023-11-03T17:54:45.484Z,6.95
2023-11-03T17:57:47.537Z,9.32
2023-11-03T18:00:49.495Z,3.95
2023-11-03T18:03:53.264Z,3.90
2023-11-03T18:06:55.818Z,9.63
2023-11-03T18:09:58.361Z,4.30
2023-11-03T18:13:00.109Z,6.20
2023-11-03T18:16:03.528Z,4.43
2023-11-03T18:22:08.720Z,3.15
2023-11-03T18:25:12.004Z,4.25
2023-11-03T18:31:18.022Z,2.38
2023-11-03T18:34:24.913Z,3.20
2023-11-03T18:37:26.847Z,2.60
2023-11-03T18:40:33.618Z,1.25
2023-11-03T18:43:36.186Z,1.83
2023-11-03T18:46:38.949Z,3.65
2023-11-03T18:52:46.249Z,2.08
2023-11-03T19:00:21.746Z,3.38
2023-11-03T19:04:21.413Z,5.43
2023-11-03T19:07:25.835Z,4.68
2023-11-03T19:09:01.458Z,3.95
2023-11-03T19:12:07.352Z,9.20
2023-11-03T19:15:10.016Z,3.05
2023-11-03T19:18:12.289Z,2.30
2023-11-03T19:21:14.332Z,4.40
2023-11-03T19:24:16.585Z,4.10
2023-11-03T19:27:19.094Z,4.55
2023-11-03T19:30:21.179Z,4.70
2023-11-03T19:33:23.102Z,3.25
2023-11-03T19:36:27.060Z,2.95
2023-11-03T19:39:29.503Z,2.53
2023-11-03T19:42:31.340Z,2.77
2023-11-03T19:45:33.722Z,3.35
2023-11-03T19:48:36.364Z,1.67
2023-11-03T19:51:38.773Z,2.88
2023-11-03T19:54:40.826Z,4.20
2023-11-03T19:57:43.088Z,2.58
2023-11-03T20:00:48.890Z,3.30
2023-11-03T20:03:51.806Z,2.58
2023-11-03T20:06:54.889Z,2.22
2023-11-03T20:09:56.916Z,1.40
2023-11-03T20:12:59.507Z,2.65
2023-11-03T20:16:02.271Z,2.43
2023-11-03T20:19:05.214Z,1.83
2023-11-03T20:22:19.381Z,2.03
2023-11-03T20:25:22.005Z,2.85
2023-11-03T20:28:24.349Z,5.93
2023-11-03T20:34:42.040Z,2.22
2023-11-03T20:37:43.826Z,1.75
2023-11-03T20:40:45.718Z,3.45
2023-11-03T20:43:47.562Z,2.53
2023-11-03T20:46:49.590Z,2.05
2023-11-03T20:49:51.585Z,4.00
2023-11-03T20:52:53.423Z,2.17
2023-11-03T20:55:55.351Z,2.22
2023-11-03T20:58:57.148Z,1.13
2023-11-03T21:02:01.980Z,2.78
2023-11-03T21:05:04.398Z,3.05
2023-11-03T21:08:06.753Z,1.60
2023-11-03T21:11:08.557Z,1.67
2023-11-03T21:14:10.922Z,1.92
2023-11-03T21:17:16.518Z,1.05
2023-11-03T21:20:19.330Z,2.67
2023-11-03T21:23:23.625Z,1.13
2023-11-03T21:26:26.424Z,2.05
2023-11-03T21:29:29.016Z,3.45
2023-11-03T21:32:35.482Z,4.90
2023-11-03T21:35:37.465Z,1.00
2023-11-03T21:38:39.341Z,1.33
2023-11-03T21:41:48.118Z,1.00
2023-11-03T21:44:50.243Z,1.73
2023-11-03T21:47:52.458Z,1.13
2023-11-03T21:50:54.476Z,1.40
2023-11-03T21:53:57.201Z,1.58
2023-11-03T21:56:59.058Z,1.45
2023-11-03T22:00:01.622Z,1.52
2023-11-03T22:03:03.576Z,1.13
2023-11-03T22:06:06.947Z,1.23
2023-11-03T22:12:12.439Z,1.35
2023-11-03T22:15:14.335Z,2.17
2023-11-03T22:18:17.454Z,1.98
2023-11-03T22:21:19.790Z,2.67
2023-11-03T22:24:21.695Z,1.50
2023-11-03T22:27:23.572Z,1.98
2023-11-03T22:30:25.485Z,1.67
2023-11-03T22:33:27.621Z,0.70
2023-11-03T22:36:29.593Z,0.55
2023-11-03T22:39:33.549Z,1.08
2023-11-03T22:42:35.518Z,0.60
2023-11-03T22:45:37.311Z,0.73
2023-11-03T22:48:39.723Z,1.08
2023-11-03T22:51:42.007Z,1.83
2023-11-03T22:54:47.738Z,0.60
2023-11-03T22:57:51.209Z,0.90
2023-11-03T23:00:53.010Z,0.68
2023-11-03T23:03:54.839Z,1.25
2023-11-03T23:06:59.557Z,0.50
2023-11-03T23:10:01.635Z,0.95
2023-11-03T23:13:05.812Z,0.50
2023-11-03T23:16:09.822Z,0.60
2023-11-03T23:19:11.727Z,0.75
2023-11-03T23:22:14.392Z,0.75
2023-11-03T23:25:16.232Z,0.60
2023-11-03T23:28:18.203Z,1.50
2023-11-03T23:31:19.981Z,0.95
2023-11-03T23:34:21.903Z,0.60
2023-11-03T23:37:24.365Z,0.60
2023-11-03T23:40:26.394Z,0.80
2023-11-03T23:43:31.921Z,0.55
2023-11-03T23:46:33.998Z,0.70
2023-11-03T23:49:37.547Z,1.27
2023-11-03T23:52:39.503Z,1.02
2023-11-03T23:55:44.157Z,2.35
2023-11-03T23:58:48.766Z,1.73
